Time;durP1;ratioP1;P1;durP2;ratioP2;P2;SDS_P1;SDS_P2;PMS_P1;PMS_P2;Temp;Humidity;BMP_temperature;BMP_pressure;BME280_temperature;BME280_humidity;BME280_pressure;Samples;Min_cycle;Max_cycle;Signal;HPM_P1;HPM_P2
2022/01/27 00:02:09;;;;;;;;;48.00;39.67;;;;;4.97;80.50;102734.69;4957057;28;45901;-71
2022/01/27 00:04:40;;;;;;;;;45.67;35.33;;;;;4.95;80.64;102737.25;4956916;28;45483;-70
2022/01/27 00:07:05;;;;;;;;;50.67;36.33;;;;;4.87;80.59;102723.91;4956964;28;45462;-71
2022/01/27 00:10:02;;;;;;;;;38.67;35.00;;;;;4.81;80.93;102710.66;4957563;28;45329;-70
2022/01/27 00:12:27;;;;;;;;;44.67;36.67;;;;;4.86;81.04;102729.97;4956382;28;47588;-71
2022/01/27 00:15:07;;;;;;;;;45.67;37.00;;;;;4.80;81.47;102719.31;4957240;28;45440;-70
2022/01/27 00:17:33;;;;;;;;;52.33;38.67;;;;;4.73;81.34;102709.53;4984903;28;45598;-70
2022/01/27 00:19:58;;;;;;;;;48.33;38.67;;;;;4.73;81.57;102712.13;5036000;28;45498;-70
2022/01/27 00:22:27;;;;;;;;;44.67;31.33;;;;;4.78;81.77;102714.88;5035958;28;45978;-70
2022/01/27 00:24:52;;;;;;;;;45.00;32.33;;;;;4.78;81.73;102714.88;5098394;27;45391;-70
2022/01/27 00:27:18;;;;;;;;;47.00;39.00;;;;;4.93;81.80;102725.84;5098531;27;45471;-71
2022/01/27 00:29:43;;;;;;;;;45.67;34.67;;;;;4.82;81.47;102690.66;5098905;27;45278;-71
2022/01/27 00:32:08;;;;;;;;;45.67;38.67;;;;;4.99;81.63;102717.31;5098410;27;46163;-71
2022/01/27 00:34:34;;;;;;;;;52.67;36.00;;;;;5.07;81.62;102713.25;5098709;27;45288;-71
2022/01/27 00:36:59;;;;;;;;;46.00;35.33;;;;;5.03;81.56;102699.19;5098699;27;45395;-71
2022/01/27 00:39:24;;;;;;;;;50.33;34.33;;;;;5.11;81.70;102698.53;5098907;27;45163;-71
2022/01/27 00:41:50;;;;;;;;;51.67;39.00;;;;;5.15;81.37;102693.47;5079906;27;47253;-71
2022/01/27 00:44:15;;;;;;;;;36.33;26.00;;;;;5.21;80.95;102698.91;5098405;27;45499;-71
2022/01/27 00:46:41;;;;;;;;;43.33;34.67;;;;;5.26;81.39;102695.50;5098307;27;45340;-71
2022/01/27 00:49:06;;;;;;;;;48.67;32.00;;;;;5.11;81.61;102667.22;5098451;27;45468;-70
2022/01/27 00:51:36;;;;;;;;;40.00;29.33;;;;;5.26;81.42;102688.59;5098302;27;46449;-71
2022/01/27 00:54:09;;;;;;;;;45.33;35.00;;;;;5.31;81.55;102696.56;5098339;27;45445;-70
2022/01/27 01:01:38;;;;;;;;;38.67;33.33;;;;;5.32;81.64;102673.09;5098200;27;46152;-71
2022/01/27 01:04:06;;;;;;;;;30.67;25.00;;;;;5.32;81.76;102664.38;5097960;27;45664;-70
2022/01/27 01:06:45;;;;;;;;;53.67;39.33;;;;;5.40;82.09;102674.22;5098369;27;45314;-71
2022/01/27 01:32:56;;;;;;;;;38.00;30.00;;;;;5.56;82.27;102652.03;5097594;27;45874;-71
2022/01/27 01:35:35;;;;;;;;;29.67;28.00;;;;;5.62;82.50;102661.78;5097677;27;45362;-71
2022/01/27 01:38:02;;;;;;;;;41.67;32.00;;;;;5.56;82.31;102646.81;5097777;27;45371;-72
2022/01/27 01:40:27;;;;;;;;;43.67;34.00;;;;;5.60;82.29;102639.94;5097874;27;45431;-72
2022/01/27 01:42:53;;;;;;;;;40.00;25.67;;;;;5.64;82.43;102649.63;5097740;27;46065;-71
2022/01/27 01:45:20;;;;;;;;;37.67;33.33;;;;;5.69;82.75;102652.38;5097386;27;45327;-71
2022/01/27 01:47:47;;;;;;;;;41.00;34.67;;;;;5.64;82.56;102641.81;5097234;27;45222;-71
2022/01/27 01:50:14;;;;;;;;;43.67;30.33;;;;;5.71;82.50;102635.03;5098019;27;45264;-72
2022/01/27 01:52:40;;;;;;;;;43.33;30.33;;;;;5.67;82.72;102639.28;5097225;27;45210;-72
2022/01/27 01:55:09;;;;;;;;;40.00;35.33;;;;;5.72;82.92;102648.13;5097676;27;45389;-71
2022/01/27 01:57:35;;;;;;;;;35.67;29.00;;;;;5.70;82.45;102623.66;5097582;27;45477;-72
2022/01/27 02:00:01;;;;;;;;;41.00;32.67;;;;;5.72;82.74;102628.94;5097700;27;45497;-72
2022/01/27 02:02:27;;;;;;;;;20.67;15.67;;;;;5.79;82.82;102643.94;5086794;27;45446;-71
2022/01/27 02:04:55;;;;;;;;;43.67;35.67;;;;;5.80;82.63;102650.09;5097911;27;45245;-70
2022/01/27 02:07:35;;;;;;;;;39.00;35.67;;;;;5.77;82.70;102640.41;5104247;27;45352;-71
2022/01/27 02:18:01;;;;;;;;;46.67;36.33;;;;;5.84;82.60;102638.84;5097290;27;45245;-71
2022/01/27 02:20:31;;;;;;;;;38.33;33.00;;;;;5.81;82.78;102626.59;5111998;27;45381;-71
2022/01/27 02:22:57;;;;;;;;;47.00;34.00;;;;;5.78;82.56;102620.38;5117544;27;45494;-71
2022/01/27 02:25:23;;;;;;;;;34.33;26.33;;;;;5.80;82.86;102626.56;5117575;27;45422;-71
2022/01/27 02:27:55;;;;;;;;;42.67;35.33;;;;;5.79;82.88;102636.09;5110339;27;45298;-71
2022/01/27 02:30:22;;;;;;;;;48.33;35.33;;;;;5.83;82.88;102637.09;5097007;27;45478;-71
2022/01/27 02:32:52;;;;;;;;;40.67;32.67;;;;;5.84;82.78;102637.13;5096233;27;46648;-70
2022/01/27 02:35:18;;;;;;;;;32.00;27.33;;;;;5.87;82.81;102634.59;5097001;27;45702;-71
2022/01/27 02:37:44;;;;;;;;;38.33;30.67;;;;;5.87;83.30;102632.00;5097024;27;45423;-71
2022/01/27 02:40:11;;;;;;;;;38.00;31.67;;;;;5.59;83.26;102580.66;5097198;27;45307;-71
2022/01/27 02:42:37;;;;;;;;;46.33;36.00;;;;;5.78;83.37;102607.31;5100002;27;46759;-71
2022/01/27 02:45:13;;;;;;;;;48.67;37.67;;;;;5.87;83.57;102623.28;5100272;27;45450;-71
2022/01/27 02:47:38;;;;;;;;;43.00;38.00;;;;;5.80;83.39;102609.13;5100343;27;45348;-71
2022/01/27 02:50:05;;;;;;;;;40.33;32.67;;;;;5.89;83.89;102616.34;5100670;27;45222;-71
2022/01/27 02:52:31;;;;;;;;;53.67;39.33;;;;;5.92;83.62;102611.19;5100116;27;47726;-71
2022/01/27 02:54:56;;;;;;;;;39.33;32.00;;;;;5.94;83.51;102606.91;5100246;27;45344;-72
2022/01/27 02:57:23;;;;;;;;;46.33;36.67;;;;;5.97;83.74;102603.47;5100172;27;45489;-71
2022/01/27 02:59:48;;;;;;;;;54.33;40.00;;;;;5.70;83.83;102555.72;5100223;27;45419;-72
2022/01/27 03:02:15;;;;;;;;;55.33;39.67;;;;;5.93;84.22;102602.50;5100040;27;45387;-72
2022/01/27 03:04:40;;;;;;;;;41.33;32.33;;;;;5.81;83.79;102581.25;5099426;27;45383;-72
2022/01/27 03:07:07;;;;;;;;;52.33;34.00;;;;;5.91;83.93;102601.56;5100053;27;45288;-71
2022/01/27 03:09:33;;;;;;;;;54.00;37.33;;;;;5.88;84.07;102594.56;5099950;27;45312;-72
2022/01/27 03:12:00;;;;;;;;;42.33;31.67;;;;;5.92;84.56;102601.63;5099819;27;47283;-72
2022/01/27 03:14:26;;;;;;;;;42.33;35.67;;;;;5.91;84.44;102596.34;5099749;27;45420;-72
2022/01/27 03:16:54;;;;;;;;;43.67;36.33;;;;;5.85;85.01;102590.97;5100052;27;45373;-72
2022/01/27 03:19:19;;;;;;;;;50.67;39.00;;;;;5.82;85.13;102581.28;5099791;27;45463;-72
2022/01/27 03:21:45;;;;;;;;;45.00;37.33;;;;;5.79;84.96;102570.75;5099718;27;46015;-71
2022/01/27 03:24:10;;;;;;;;;35.67;34.00;;;;;5.85;85.32;102580.50;5099901;27;45338;-71
2022/01/27 03:26:36;;;;;;;;;39.33;32.67;;;;;5.88;84.95;102578.88;5099892;27;45317;-71
2022/01/27 03:29:03;;;;;;;;;58.00;41.67;;;;;5.90;85.48;102571.94;5081614;27;45248;-72
2022/01/27 03:31:28;;;;;;;;;61.67;48.00;;;;;5.89;85.27;102570.16;5099598;27;45513;-72
2022/01/27 03:33:54;;;;;;;;;47.00;38.33;;;;;5.92;85.29;102570.25;5099431;27;45278;-71
2022/01/27 03:36:20;;;;;;;;;41.33;35.67;;;;;5.88;85.46;102554.44;5099718;27;45218;-71
2022/01/27 03:38:46;;;;;;;;;47.33;38.00;;;;;5.90;85.43;102563.22;5100165;27;45955;-71
2022/01/27 03:41:17;;;;;;;;;49.33;39.00;;;;;5.91;85.73;102562.34;5099544;27;46301;-71
2022/01/27 03:43:43;;;;;;;;;54.67;41.67;;;;;5.90;85.91;102563.22;5098150;27;45359;-71
2022/01/27 03:46:09;;;;;;;;;48.33;35.67;;;;;5.91;86.08;102564.97;5099766;27;45342;-71
2022/01/27 03:48:34;;;;;;;;;57.67;40.33;;;;;5.92;86.25;102566.75;5098931;27;45435;-71
2022/01/27 03:50:59;;;;;;;;;54.00;39.33;;;;;5.89;86.64;102545.75;5099171;27;46321;-72
2022/01/27 03:53:25;;;;;;;;;54.00;34.00;;;;;5.93;86.19;102540.63;5099037;27;45306;-71
2022/01/27 03:55:50;;;;;;;;;44.00;36.33;;;;;5.91;86.60;102539.72;5098969;27;45345;-70
2022/01/27 03:58:16;;;;;;;;;44.33;37.33;;;;;5.81;86.80;102536.81;5099644;27;45575;-71
2022/01/27 04:00:41;;;;;;;;;59.33;42.00;;;;;5.65;87.17;102525.06;5099170;27;45972;-71
2022/01/27 04:03:09;;;;;;;;;47.33;38.00;;;;;5.72;87.07;102540.06;5098596;27;45524;-70
2022/01/27 04:05:39;;;;;;;;;47.67;37.33;;;;;5.62;87.47;102522.38;5099578;27;45525;-71
2022/01/27 04:08:08;;;;;;;;;55.67;42.00;;;;;5.62;87.91;102532.84;5098468;27;45468;-71
2022/01/27 04:10:33;;;;;;;;;57.67;39.00;;;;;5.55;87.75;102531.81;5099050;27;46090;-71
2022/01/27 04:13:00;;;;;;;;;49.00;36.67;;;;;5.46;87.75;102511.56;5098323;27;45395;-72
2022/01/27 04:15:25;;;;;;;;;40.67;36.00;;;;;5.46;87.98;102522.00;5098429;27;45369;-72
2022/01/27 04:17:51;;;;;;;;;47.33;38.33;;;;;5.24;88.29;102489.16;5099527;27;45363;-72
2022/01/27 04:20:17;;;;;;;;;59.00;39.33;;;;;5.50;88.27;102534.28;5098885;27;46686;-71
2022/01/27 04:22:42;;;;;;;;;49.67;39.33;;;;;5.46;88.59;102524.63;5098963;27;45378;-70
2022/01/27 04:25:08;;;;;;;;;53.00;39.67;;;;;5.44;88.54;102528.00;5099249;27;45388;-71
2022/01/27 04:27:37;;;;;;;;;59.00;45.00;;;;;5.45;89.25;102527.19;5097243;27;45301;-71
2022/01/27 04:30:05;;;;;;;;;55.67;41.00;;;;;5.40;88.90;102530.56;5098294;27;45665;-71
2022/01/27 04:32:39;;;;;;;;;55.67;43.00;;;;;5.35;89.74;102515.59;5098714;27;45737;-71
2022/01/27 04:35:06;;;;;;;;;60.00;40.67;;;;;5.39;89.76;102527.91;5098649;27;45528;-71
2022/01/27 04:37:37;;;;;;;;;54.00;41.67;;;;;5.41;89.91;102520.97;5097890;27;45550;-71
2022/01/27 04:40:10;;;;;;;;;55.33;40.33;;;;;5.28;90.12;102500.59;5098627;27;46626;-72
2022/01/27 04:42:55;;;;;;;;;52.67;41.67;;;;;5.37;90.19;102520.03;5098693;27;45532;-72
2022/01/27 04:45:25;;;;;;;;;58.67;42.33;;;;;5.33;90.21;102514.66;5098701;27;45504;-71
2022/01/27 04:47:57;;;;;;;;;58.00;40.00;;;;;5.09;90.21;102466.13;5098609;27;45299;-71
2022/01/27 04:50:22;;;;;;;;;59.67;46.33;;;;;5.30;90.96;102504.13;5098473;27;47176;-72
2022/01/27 04:52:50;;;;;;;;;54.67;43.33;;;;;5.29;90.89;102500.63;5097946;27;45296;-71
2022/01/27 04:55:18;;;;;;;;;51.67;41.67;;;;;5.35;91.24;102507.75;5098271;27;45284;-71
2022/01/27 04:57:45;;;;;;;;;55.33;40.00;;;;;5.30;91.79;102507.63;5098334;27;45470;-71
2022/01/27 05:00:14;;;;;;;;;57.00;43.33;;;;;5.24;92.46;102507.44;5097866;27;47311;-71
2022/01/27 05:02:50;;;;;;;;;43.00;37.00;;;;;5.28;91.89;102492.75;5097179;27;45351;-72
2022/01/27 05:05:16;;;;;;;;;57.00;43.33;;;;;5.18;92.94;102476.81;5097885;27;45356;-72
2022/01/27 05:07:41;;;;;;;;;62.67;44.00;;;;;5.28;93.05;102497.97;5079763;27;45342;-72
2022/01/27 05:10:13;;;;;;;;;56.33;43.33;;;;;5.25;92.45;102485.72;5098256;27;46331;-71
2022/01/27 05:12:45;;;;;;;;;52.00;39.67;;;;;5.26;92.56;102481.38;5088126;27;45442;-71
2022/01/27 05:15:10;;;;;;;;;58.67;39.67;;;;;5.26;92.89;102479.66;5097906;27;45277;-71
2022/01/27 05:17:36;;;;;;;;;55.00;40.00;;;;;5.32;93.35;102481.56;5096262;27;45540;-71
2022/01/27 05:20:02;;;;;;;;;61.67;43.00;;;;;5.25;93.68;102463.94;5097824;27;46438;-71
2022/01/27 05:22:27;;;;;;;;;56.00;42.00;;;;;5.26;94.29;102468.31;5097883;27;45362;-71
2022/01/27 05:24:53;;;;;;;;;62.00;42.67;;;;;5.23;93.78;102469.13;5098373;27;45258;-71
2022/01/27 05:27:18;;;;;;;;;66.00;47.67;;;;;5.31;93.65;102487.63;5098020;27;45440;-71
2022/01/27 05:29:43;;;;;;;;;61.00;47.00;;;;;5.27;93.80;102470.09;5097965;27;45421;-71
2022/01/27 05:32:09;;;;;;;;;57.00;45.33;;;;;5.24;93.78;102455.22;5097698;27;45325;-72
2022/01/27 05:34:34;;;;;;;;;57.00;43.00;;;;;5.31;93.65;102466.72;5097898;27;45291;-72
2022/01/27 05:37:00;;;;;;;;;58.67;42.33;;;;;5.21;93.69;102457.75;5098073;27;45408;-70
2022/01/27 05:39:25;;;;;;;;;58.33;44.00;;;;;5.21;94.00;102458.66;5096987;27;46358;-71
2022/01/27 05:41:51;;;;;;;;;58.00;40.67;;;;;5.06;93.37;102422.53;5097790;27;45406;-71
2022/01/27 05:44:16;;;;;;;;;67.33;46.00;;;;;5.26;93.70;102468.31;5097732;27;45676;-71
2022/01/27 05:46:41;;;;;;;;;54.00;41.33;;;;;5.22;93.65;102459.53;5097946;27;45283;-71
2022/01/27 05:49:07;;;;;;;;;54.00;43.00;;;;;5.25;93.83;102466.56;5097284;27;45449;-71
2022/01/27 05:51:33;;;;;;;;;56.33;43.33;;;;;5.20;94.10;102450.78;5097284;27;45328;-71
2022/01/27 05:53:58;;;;;;;;;62.00;43.67;;;;;5.28;94.22;102450.97;5097799;27;45301;-71
2022/01/27 05:56:24;;;;;;;;;57.33;43.00;;;;;5.25;94.10;102448.28;5097898;27;45263;-70
2022/01/27 05:58:49;;;;;;;;;60.00;45.00;;;;;5.23;94.20;102440.41;5097518;27;46543;-71
2022/01/27 06:01:14;;;;;;;;;50.67;42.33;;;;;5.23;93.96;102445.63;5096366;27;45513;-71
2022/01/27 06:03:40;;;;;;;;;56.00;39.33;;;;;5.27;94.96;102452.72;5097393;27;45340;-71
2022/01/27 06:06:06;;;;;;;;;58.67;43.33;;;;;5.31;94.58;102456.28;5097907;27;45423;-72
2022/01/27 06:08:31;;;;;;;;;51.67;40.67;;;;;5.38;94.27;102458.22;5097337;27;45645;-72
2022/01/27 06:10:57;;;;;;;;;57.00;41.33;;;;;5.48;94.39;102457.59;5097250;27;45398;-71
2022/01/27 06:13:23;;;;;;;;;59.67;45.67;;;;;5.56;94.24;102453.47;5096189;27;45416;-73
2022/01/27 06:15:49;;;;;;;;;80.67;59.67;;;;;5.62;94.15;102457.97;5077814;28;45530;-71
2022/01/27 06:18:15;;;;;;;;;61.00;46.00;;;;;5.65;93.87;102446.69;5079923;28;46625;-71
2022/01/27 06:20:43;;;;;;;;;59.67;42.33;;;;;5.73;93.90;102447.78;5079611;28;45332;-71
2022/01/27 06:23:09;;;;;;;;;60.00;42.00;;;;;5.77;93.67;102447.00;5080746;28;45273;-71
2022/01/27 06:25:34;;;;;;;;;42.33;37.67;;;;;5.75;93.48;102436.50;5080536;28;45237;-70
2022/01/27 06:28:00;;;;;;;;;55.33;40.33;;;;;5.86;93.42;102443.72;5079510;28;45424;-71
2022/01/27 06:30:26;;;;;;;;;59.67;42.67;;;;;5.84;93.77;102433.25;5078661;28;45469;-71
2022/01/27 06:32:51;;;;;;;;;48.67;38.00;;;;;5.86;93.29;102433.28;5080468;28;45335;-71
2022/01/27 06:35:17;;;;;;;;;57.33;39.67;;;;;5.83;93.36;102422.75;5079698;28;45400;-71
2022/01/27 06:37:45;;;;;;;;;73.67;53.00;;;;;5.92;93.59;102434.31;5079720;28;46420;-70
2022/01/27 06:40:11;;;;;;;;;58.33;42.67;;;;;5.97;93.36;102437.06;5078681;28;45516;-71
2022/01/27 06:42:37;;;;;;;;;60.67;43.00;;;;;6.02;93.32;102442.41;5079796;28;45229;-71
2022/01/27 06:45:05;;;;;;;;;53.33;41.00;;;;;6.00;93.26;102433.63;5079791;28;45488;-71
2022/01/27 06:47:30;;;;;;;;;52.00;40.00;;;;;6.08;93.16;102439.91;5079405;28;45756;-70
2022/01/27 06:49:56;;;;;;;;;49.00;37.67;;;;;5.95;93.17;102415.19;5079706;28;45686;-70
2022/01/27 06:52:24;;;;;;;;;54.67;39.67;;;;;6.07;93.46;102425.97;5079911;28;45368;-71
2022/01/27 06:54:50;;;;;;;;;59.33;40.67;;;;;6.16;93.51;102433.16;5080170;28;45487;-71
2022/01/27 06:57:16;;;;;;;;;51.67;38.33;;;;;6.09;93.62;102418.16;5079562;28;47087;-72
2022/01/27 06:59:41;;;;;;;;;51.33;38.67;;;;;6.20;93.27;102429.75;5061253;28;45499;-71
2022/01/27 07:02:06;;;;;;;;;53.33;44.33;;;;;6.22;93.43;102430.66;5080256;28;45315;-72
2022/01/27 07:04:32;;;;;;;;;49.00;40.00;;;;;6.23;93.41;102432.44;5080142;28;45222;-71
2022/01/27 07:06:57;;;;;;;;;56.33;41.33;;;;;6.22;93.49;102425.44;5079303;28;45599;-71
2022/01/27 07:09:23;;;;;;;;;53.33;39.00;;;;;5.99;93.73;102382.19;5079475;28;45294;-71
2022/01/27 07:11:48;;;;;;;;;51.33;39.33;;;;;6.29;94.07;102426.47;5079523;28;45287;-71
2022/01/27 07:14:13;;;;;;;;;46.67;35.33;;;;;6.21;93.74;102415.81;5088181;27;45423;-71
2022/01/27 07:16:39;;;;;;;;;48.67;38.00;;;;;6.34;93.93;102424.81;5099589;27;45441;-71
2022/01/27 07:19:04;;;;;;;;;56.67;38.00;;;;;6.40;93.73;102432.78;5100081;27;46317;-71
2022/01/27 07:21:30;;;;;;;;;56.67;36.67;;;;;6.36;93.55;102419.59;5099711;27;45168;-71
2022/01/27 07:23:55;;;;;;;;;46.67;35.33;;;;;6.47;94.01;102430.31;5099379;27;45528;-71
2022/01/27 07:26:25;;;;;;;;;57.67;45.00;;;;;6.47;93.57;102420.72;5098814;27;46288;-71
2022/01/27 07:28:55;;;;;;;;;42.00;38.00;;;;;6.57;93.46;102427.06;5097632;27;45489;-71
2022/01/27 07:31:20;;;;;;;;;74.33;55.67;;;;;6.63;93.64;102421.94;5099664;27;45426;-71
2022/01/27 07:33:48;;;;;;;;;41.67;34.00;;;;;6.59;93.54;102410.53;5099865;27;45159;-71
2022/01/27 07:36:16;;;;;;;;;45.67;32.00;;;;;6.70;93.34;102412.50;5099312;27;46615;-71
2022/01/27 07:38:44;;;;;;;;;36.67;31.67;;;;;6.72;93.89;102414.25;5099508;27;45344;-70
2022/01/27 07:41:12;;;;;;;;;33.33;31.00;;;;;6.72;93.98;102416.00;5097601;27;45352;-71
2022/01/27 07:43:40;;;;;;;;;41.33;33.33;;;;;6.67;94.54;102399.34;5102849;27;45480;-73
2022/01/27 07:46:06;;;;;;;;;36.67;32.33;;;;;6.78;93.47;102403.03;5099097;27;45553;-73
2022/01/27 07:48:32;;;;;;;;;30.00;29.67;;;;;6.88;93.48;102414.56;5114717;27;45339;-73
2022/01/27 07:50:57;;;;;;;;;35.33;23.67;;;;;6.86;93.29;102398.84;5120187;27;45387;-74
2022/01/27 07:53:23;;;;;;;;;52.67;36.67;;;;;6.89;93.35;102395.41;5120285;27;45327;-73
2022/01/27 07:55:48;;;;;;;;;29.00;20.00;;;;;7.04;92.85;102411.38;5119648;27;45277;-73
2022/01/27 07:58:13;;;;;;;;;35.33;25.00;;;;;7.14;92.50;102421.22;5119919;27;45190;-73
2022/01/27 08:00:40;;;;;;;;;35.33;24.00;;;;;7.17;91.87;102416.88;5104356;27;45216;-74
2022/01/27 08:03:05;;;;;;;;;34.00;22.67;;;;;7.27;91.86;102422.28;5097895;27;45386;-72
2022/01/27 08:05:31;;;;;;;;;29.00;22.33;;;;;7.37;91.47;102428.59;5099126;27;45956;-72
2022/01/27 08:07:57;;;;;;;;;30.67;27.67;;;;;7.30;91.50;102416.22;5098729;27;45964;-72
2022/01/27 08:10:22;;;;;;;;;34.33;20.67;;;;;7.45;91.02;102426.09;5099222;27;45334;-74
2022/01/27 08:12:48;;;;;;;;;20.50;18.25;;;;;7.48;90.72;102420.94;5099193;27;45402;-73
2022/01/27 08:15:18;;;;;;;;;23.00;18.33;;;;;7.52;90.45;102413.97;5096699;27;45719;-72
2022/01/27 08:17:43;;;;;;;;;26.67;20.33;;;;;7.68;90.21;102416.00;5097016;27;45407;-72
2022/01/27 08:20:09;;;;;;;;;24.67;19.33;;;;;7.73;89.56;102410.84;5098914;27;45201;-71
2022/01/27 08:22:43;;;;;;;;;29.33;18.33;;;;;7.95;89.84;102427.78;5099200;27;45313;-72
2022/01/27 08:25:09;;;;;;;;;16.00;12.00;;;;;7.98;88.65;102425.22;5098651;27;45342;-74
2022/01/27 08:27:36;;;;;;;;;14.25;11.25;;;;;7.95;88.61;102412.94;5097291;27;45445;-74
2022/01/27 08:30:04;;;;;;;;;20.00;14.67;;;;;8.09;88.52;102434.13;5098686;27;45449;-73
2022/01/27 08:35:14;;;;;;;;;18.75;14.50;;;;;8.31;88.06;102440.56;5098475;27;45454;-73
2022/01/27 08:37:40;;;;;;;;;19.67;16.67;;;;;8.47;87.75;102451.31;5117723;27;45300;-72
2022/01/27 08:40:06;;;;;;;;;19.33;16.00;;;;;8.57;86.83;102452.28;5119579;27;45318;-72
2022/01/27 08:42:32;;;;;;;;;21.75;16.50;;;;;8.60;86.46;102434.84;5119070;27;45500;-72
2022/01/27 08:44:57;;;;;;;;;19.25;15.25;;;;;8.74;86.30;102445.50;5118978;27;46675;-73
2022/01/27 08:47:23;;;;;;;;;20.00;16.33;;;;;8.74;85.63;102431.50;5118740;27;45238;-73
2022/01/27 08:49:49;;;;;;;;;18.67;17.00;;;;;8.83;85.49;102422.00;5119101;27;45317;-72
2022/01/27 08:52:14;;;;;;;;;17.75;14.00;;;;;8.98;85.20;102442.31;5119558;27;45222;-72
2022/01/27 08:54:40;;;;;;;;;20.00;18.00;;;;;8.99;84.95;102430.94;5118672;27;45391;-74
2022/01/27 08:57:06;;;;;;;;;18.75;15.75;;;;;9.01;85.21;102430.97;5118950;27;45446;-72
2022/01/27 08:59:32;;;;;;;;;13.50;12.00;;;;;9.02;84.73;102430.09;5118919;27;45404;-73
2022/01/27 09:01:57;;;;;;;;;14.25;11.50;;;;;9.02;84.89;102423.09;5118926;27;45424;-72
2022/01/27 09:04:22;;;;;;;;;15.50;12.00;;;;;9.02;84.74;102428.34;5118708;27;45496;-72
2022/01/27 09:06:48;;;;;;;;;13.50;10.25;;;;;8.98;84.72;102421.28;5118515;27;45367;-72
2022/01/27 09:09:13;;;;;;;;;15.25;12.00;;;;;9.01;84.87;102415.19;5118954;27;45307;-72
2022/01/27 09:11:43;;;;;;;;;20.75;19.25;;;;;9.09;84.66;102431.03;5119060;27;45436;-71
2022/01/27 09:14:09;;;;;;;;;16.00;14.25;;;;;9.09;84.82;102420.53;5110389;27;45674;-73
2022/01/27 09:16:35;;;;;;;;;19.25;14.75;;;;;9.16;84.67;102428.47;5098038;27;45192;-71
2022/01/27 09:19:03;;;;;;;;;15.00;12.75;;;;;9.06;84.20;102429.25;5097562;27;45434;-72
2022/01/27 09:21:40;;;;;;;;;16.50;12.75;;;;;9.25;84.30;102430.34;5098311;27;45353;-72
2022/01/27 09:24:06;;;;;;;;;16.25;13.75;;;;;9.25;84.27;102425.09;5097728;27;46761;-73
2022/01/27 09:26:50;;;;;;;;;18.50;14.25;;;;;9.34;84.20;102435.69;5097915;27;45448;-73
2022/01/27 09:29:19;;;;;;;;;18.33;15.00;;;;;9.16;84.38;102391.69;5097547;27;45321;-72
2022/01/27 09:31:48;;;;;;;;;17.00;11.25;;;;;9.46;84.60;102431.41;5098149;27;45264;-72
2022/01/27 09:34:15;;;;;;;;;24.00;16.50;;;;;9.41;85.65;102424.34;5097649;27;46140;-73
2022/01/27 09:36:41;;;;;;;;;11.00;7.00;;;;;9.46;85.30;102427.03;5085832;27;45356;-73
2022/01/27 09:39:07;;;;;;;;;18.00;13.25;;;;;9.53;85.40;102431.47;5077543;28;45316;-73
2022/01/27 09:41:37;;;;;;;;;15.33;15.33;;;;;9.55;85.02;102436.75;5077331;28;45235;-73
2022/01/27 09:44:03;;;;;;;;;19.25;13.00;;;;;9.58;84.90;102432.41;5076926;28;45552;-73
2022/01/27 09:46:29;;;;;;;;;16.50;13.75;;;;;9.56;84.68;102423.59;5077002;28;45389;-73
2022/01/27 09:48:55;;;;;;;;;13.00;11.25;;;;;9.68;84.55;102445.63;5077109;28;45291;-74
2022/01/27 09:51:25;;;;;;;;;15.75;12.50;;;;;9.70;84.59;102444.78;5080202;28;45529;-73
2022/01/27 09:53:54;;;;;;;;;14.50;10.50;;;;;9.70;84.21;102444.78;5080657;28;45535;-73
2022/01/27 09:56:21;;;;;;;;;10.75;8.75;;;;;9.79;84.02;102443.06;5080857;28;45529;-73
2022/01/27 09:58:47;;;;;;;;;15.50;12.50;;;;;9.79;83.94;102430.81;5080854;28;45249;-71
2022/01/27 10:01:13;;;;;;;;;12.00;9.25;;;;;9.85;83.50;102435.25;5080810;28;45301;-72
2022/01/27 10:04:11;;;;;;;;;12.25;8.00;;;;;9.92;83.09;102430.03;5080644;28;45407;-72
2022/01/27 10:06:37;;;;;;;;;18.25;11.50;;;;;9.87;83.09;102421.19;5078006;28;45233;-73
2022/01/27 10:09:24;;;;;;;;;13.75;11.25;;;;;10.02;82.51;102443.22;5080669;28;45296;-72
2022/01/27 10:11:51;;;;;;;;;14.67;13.33;;;;;10.04;82.55;102431.00;5080943;28;45413;-72
2022/01/27 10:14:32;;;;;;;;;17.00;12.25;;;;;10.07;81.64;102439.75;5088722;27;46148;-72
2022/01/27 10:17:03;;;;;;;;;10.50;8.50;;;;;10.12;82.02;102442.41;5100787;27;45337;-72
2022/01/27 10:19:30;;;;;;;;;11.00;8.75;;;;;10.06;81.81;102430.13;5100119;27;45410;-72
2022/01/27 10:22:15;;;;;;;;;19.25;12.25;;;;;10.16;81.93;102440.72;5101128;27;45240;-72
2022/01/27 10:24:41;;;;;;;;;16.25;12.50;;;;;10.20;81.48;102451.25;5100862;27;45288;-72
2022/01/27 10:27:28;;;;;;;;;18.25;13.50;;;;;10.22;81.73;102449.53;5100555;27;45407;-72
2022/01/27 10:32:36;;;;;;;;;18.50;14.00;;;;;10.27;81.46;102439.03;5100957;27;45577;-72
2022/01/27 10:35:04;;;;;;;;;15.00;11.50;;;;;10.37;81.59;102442.59;5100772;27;45398;-72
2022/01/27 10:37:58;;;;;;;;;14.25;12.75;;;;;10.43;81.73;102448.78;5100485;27;45376;-72
2022/01/27 10:40:28;;;;;;;;;20.25;14.00;;;;;10.45;81.49;102446.16;5100657;27;45455;-72
2022/01/27 10:43:14;;;;;;;;;18.50;16.25;;;;;10.47;81.36;102433.91;5100796;27;45391;-71
2022/01/27 10:46:12;;;;;;;;;18.00;17.00;;;;;10.52;81.39;102450.59;5100404;27;46225;-72
2022/01/27 10:48:50;;;;;;;;;19.00;15.67;;;;;10.51;81.59;102450.59;5100397;27;45278;-72
2022/01/27 10:51:23;;;;;;;;;26.67;22.67;;;;;10.45;81.92;102440.91;5100656;27;45430;-71
2022/01/27 10:54:18;;;;;;;;;23.33;22.33;;;;;10.47;82.26;102459.34;5100504;27;45397;-72
2022/01/27 10:56:45;;;;;;;;;27.67;22.00;;;;;10.43;82.41;102443.53;5100213;27;46638;-72
2022/01/27 10:59:13;;;;;;;;;26.67;19.00;;;;;10.41;82.45;102454.91;5100043;27;45429;-72
2022/01/27 11:01:41;;;;;;;;;30.33;20.33;;;;;10.44;82.92;102454.94;5098821;27;45447;-72
2022/01/27 11:04:10;;;;;;;;;24.00;19.67;;;;;10.39;83.02;102449.66;5100608;27;45321;-71
2022/01/27 11:06:37;;;;;;;;;22.67;19.33;;;;;10.40;83.29;102450.56;5099925;27;46254;-71
2022/01/27 11:09:08;;;;;;;;;28.33;23.00;;;;;10.35;83.38;102447.88;5099879;27;45314;-71
2022/01/27 11:11:36;;;;;;;;;35.00;30.67;;;;;10.38;83.93;102453.19;5099871;27;45348;-71
2022/01/27 11:14:03;;;;;;;;;30.33;24.67;;;;;10.37;83.93;102448.78;5100039;27;45920;-71
2022/01/27 11:16:35;;;;;;;;;30.00;22.33;;;;;10.34;84.03;102443.50;5099701;27;45509;-71
2022/01/27 11:21:48;;;;;;;;;31.67;25.00;;;;;10.33;84.16;102444.31;5099986;27;45344;-72
2022/01/27 11:24:30;;;;;;;;;31.67;24.00;;;;;10.29;84.04;102430.25;5099846;27;45451;-72
2022/01/27 11:26:58;;;;;;;;;20.00;19.33;;;;;10.31;84.21;102443.44;5099730;27;46422;-71
2022/01/27 11:29:26;;;;;;;;;23.33;19.00;;;;;10.26;84.68;102435.50;5099877;27;45245;-72
2022/01/27 11:32:11;;;;;;;;;23.33;20.33;;;;;10.31;84.60;102446.09;5099817;27;45269;-72
2022/01/27 11:34:51;;;;;;;;;21.67;18.67;;;;;10.29;84.67;102440.78;5100005;27;45317;-72
2022/01/27 11:37:30;;;;;;;;;28.33;22.33;;;;;10.32;84.77;102444.31;5099299;27;46175;-72
2022/01/27 11:40:00;;;;;;;;;15.00;13.33;;;;;10.24;85.11;102425.84;5099555;27;45426;-71
2022/01/27 11:42:35;;;;;;;;;33.00;29.33;;;;;10.29;85.29;102432.88;5099682;27;45410;-71
2022/01/27 11:45:21;;;;;;;;;23.33;15.67;;;;;10.32;85.13;102431.16;5099963;27;45324;-71
2022/01/27 11:47:53;;;;;;;;;21.67;16.33;;;;;10.26;85.07;102424.09;5099346;27;45355;-72
2022/01/27 11:53:00;;;;;;;;;27.00;25.00;;;;;10.24;86.43;102429.34;5099328;27;45404;-71
2022/01/27 11:55:26;;;;;;;;;25.00;20.67;;;;;10.24;86.34;102431.13;5099805;27;45348;-72
2022/01/27 11:57:52;;;;;;;;;29.00;23.33;;;;;10.25;86.18;102431.13;5099316;27;45280;-72
2022/01/27 12:00:20;;;;;;;;;26.33;19.00;;;;;10.26;86.75;102432.00;5099130;27;45433;-72
2022/01/27 12:03:10;;;;;;;;;24.00;22.00;;;;;10.29;85.85;102432.00;5099498;27;45324;-71
2022/01/27 12:06:02;;;;;;;;;24.67;16.33;;;;;10.29;86.56;102440.78;5016533;28;45825;-72
2022/01/27 12:08:28;;;;;;;;;18.50;16.25;;;;;10.32;86.26;102425.88;5015999;28;45641;-72
2022/01/27 12:10:58;;;;;;;;;15.00;12.25;;;;;10.33;85.96;102423.25;5016002;28;45402;-71